sensor_id;sensor_type;location;lat;lon;timestamp;P1;durP1;ratioP1;P2;durP2;ratioP2
49556;SDS011;35462;45.048;7.666;2023-06-22T00:08:05;5.47;;;3.80;;
49556;SDS011;35462;45.048;7.666;2023-06-22T00:23:24;8.60;;;4.03;;
49556;SDS011;35462;45.048;7.666;2023-06-22T00:38:44;9.63;;;5.47;;
49556;SDS011;35462;45.048;7.666;2023-06-22T00:54:04;12.65;;;5.30;;
49556;SDS011;35462;45.048;7.666;2023-06-22T01:09:29;10.30;;;6.88;;
49556;SDS011;35462;45.048;7.666;2023-06-22T01:40:31;10.33;;;7.60;;
49556;SDS011;35462;45.048;7.666;2023-06-22T01:55:52;11.18;;;7.80;;
49556;SDS011;35462;45.048;7.666;2023-06-22T02:11:11;6.10;;;4.70;;
49556;SDS011;35462;45.048;7.666;2023-06-22T02:26:34;7.30;;;4.32;;
49556;SDS011;35462;45.048;7.666;2023-06-22T02:41:54;9.43;;;6.68;;
49556;SDS011;35462;45.048;7.666;2023-06-22T02:57:15;15.13;;;6.45;;
49556;SDS011;35462;45.048;7.666;2023-06-22T03:12:36;9.77;;;6.60;;
49556;SDS011;35462;45.048;7.666;2023-06-22T03:27:57;11.05;;;7.22;;
49556;SDS011;35462;45.048;7.666;2023-06-22T03:43:18;9.85;;;7.53;;
49556;SDS011;35462;45.048;7.666;2023-06-22T03:58:39;10.23;;;7.55;;
49556;SDS011;35462;45.048;7.666;2023-06-22T04:14:01;10.25;;;7.65;;
49556;SDS011;35462;45.048;7.666;2023-06-22T04:29:21;8.75;;;6.45;;
49556;SDS011;35462;45.048;7.666;2023-06-22T04:44:47;11.43;;;8.67;;
49556;SDS011;35462;45.048;7.666;2023-06-22T05:00:07;8.27;;;6.60;;
49556;SDS011;35462;45.048;7.666;2023-06-22T05:15:40;10.02;;;6.32;;
49556;SDS011;35462;45.048;7.666;2023-06-22T05:30:59;9.80;;;6.72;;
49556;SDS011;35462;45.048;7.666;2023-06-22T05:46:19;10.25;;;6.57;;
49556;SDS011;35462;45.048;7.666;2023-06-22T06:01:38;13.05;;;7.28;;
49556;SDS011;35462;45.048;7.666;2023-06-22T06:16:58;10.43;;;6.68;;
49556;SDS011;35462;45.048;7.666;2023-06-22T06:32:18;8.95;;;5.95;;
49556;SDS011;35462;45.048;7.666;2023-06-22T07:03:20;8.50;;;4.43;;
49556;SDS011;35462;45.048;7.666;2023-06-22T07:18:51;9.07;;;3.90;;
49556;SDS011;35462;45.048;7.666;2023-06-22T07:34:10;5.82;;;3.65;;
49556;SDS011;35462;45.048;7.666;2023-06-22T07:49:41;7.10;;;3.33;;
49556;SDS011;35462;45.048;7.666;2023-06-22T08:05:15;6.83;;;4.20;;
49556;SDS011;35462;45.048;7.666;2023-06-22T08:20:36;8.00;;;3.37;;
49556;SDS011;35462;45.048;7.666;2023-06-22T08:35:57;8.77;;;3.70;;
49556;SDS011;35462;45.048;7.666;2023-06-22T08:51:20;10.67;;;5.27;;
49556;SDS011;35462;45.048;7.666;2023-06-22T09:06:40;9.40;;;5.03;;
49556;SDS011;35462;45.048;7.666;2023-06-22T09:22:04;7.33;;;4.43;;
49556;SDS011;35462;45.048;7.666;2023-06-22T09:37:34;7.75;;;3.28;;
49556;SDS011;35462;45.048;7.666;2023-06-22T09:53:08;5.22;;;3.20;;
49556;SDS011;35462;45.048;7.666;2023-06-22T10:08:29;8.30;;;4.33;;
49556;SDS011;35462;45.048;7.666;2023-06-22T10:24:05;7.38;;;3.72;;
49556;SDS011;35462;45.048;7.666;2023-06-22T10:39:28;5.68;;;3.38;;
49556;SDS011;35462;45.048;7.666;2023-06-22T10:54:47;7.22;;;3.75;;
49556;SDS011;35462;45.048;7.666;2023-06-22T11:10:06;7.75;;;4.03;;
49556;SDS011;35462;45.048;7.666;2023-06-22T11:25:26;9.93;;;4.38;;
49556;SDS011;35462;45.048;7.666;2023-06-22T11:40:46;9.57;;;4.13;;
49556;SDS011;35462;45.048;7.666;2023-06-22T11:56:05;9.15;;;3.58;;
49556;SDS011;35462;45.048;7.666;2023-06-22T12:11:25;9.10;;;3.97;;
49556;SDS011;35462;45.048;7.666;2023-06-22T12:26:44;7.70;;;4.40;;
49556;SDS011;35462;45.048;7.666;2023-06-22T12:42:10;10.02;;;4.90;;
49556;SDS011;35462;45.048;7.666;2023-06-22T12:57:35;11.23;;;3.80;;
49556;SDS011;35462;45.048;7.666;2023-06-22T13:28:39;5.97;;;4.03;;
49556;SDS011;35462;45.048;7.666;2023-06-22T13:44:03;7.97;;;3.90;;
49556;SDS011;35462;45.048;7.666;2023-06-22T13:59:23;8.15;;;2.80;;
49556;SDS011;35462;45.048;7.666;2023-06-22T14:14:43;10.45;;;3.38;;
49556;SDS011;35462;45.048;7.666;2023-06-22T14:30:02;8.10;;;3.63;;
49556;SDS011;35462;45.048;7.666;2023-06-22T14:45:22;10.18;;;5.28;;
49556;SDS011;35462;45.048;7.666;2023-06-22T15:00:44;5.57;;;3.80;;
49556;SDS011;35462;45.048;7.666;2023-06-22T15:16:03;6.72;;;3.20;;
49556;SDS011;35462;45.048;7.666;2023-06-22T15:31:23;5.25;;;3.30;;
49556;SDS011;35462;45.048;7.666;2023-06-22T15:46:42;4.45;;;2.70;;
49556;SDS011;35462;45.048;7.666;2023-06-22T16:02:02;6.82;;;2.67;;
49556;SDS011;35462;45.048;7.666;2023-06-22T16:17:22;5.32;;;3.08;;
49556;SDS011;35462;45.048;7.666;2023-06-22T16:32:54;4.20;;;2.58;;
49556;SDS011;35462;45.048;7.666;2023-06-22T16:48:17;5.80;;;3.05;;
49556;SDS011;35462;45.048;7.666;2023-06-22T17:03:39;6.82;;;2.97;;
49556;SDS011;35462;45.048;7.666;2023-06-22T17:19:03;5.38;;;2.78;;
49556;SDS011;35462;45.048;7.666;2023-06-22T17:34:28;6.57;;;2.80;;
49556;SDS011;35462;45.048;7.666;2023-06-22T17:49:47;6.75;;;3.55;;
49556;SDS011;35462;45.048;7.666;2023-06-22T18:05:07;7.32;;;3.33;;
49556;SDS011;35462;45.048;7.666;2023-06-22T18:20:27;17.00;;;3.72;;
49556;SDS011;35462;45.048;7.666;2023-06-22T18:35:48;4.80;;;3.03;;
49556;SDS011;35462;45.048;7.666;2023-06-22T18:51:10;5.95;;;3.60;;
49556;SDS011;35462;45.048;7.666;2023-06-22T19:22:23;6.63;;;3.38;;
49556;SDS011;35462;45.048;7.666;2023-06-22T19:38:01;7.88;;;3.67;;
49556;SDS011;35462;45.048;7.666;2023-06-22T19:53:30;8.70;;;5.22;;
49556;SDS011;35462;45.048;7.666;2023-06-22T20:08:58;8.15;;;5.38;;
49556;SDS011;35462;45.048;7.666;2023-06-22T20:24:24;5.60;;;3.87;;
49556;SDS011;35462;45.048;7.666;2023-06-22T20:39:46;5.22;;;2.88;;
49556;SDS011;35462;45.048;7.666;2023-06-22T20:55:06;7.18;;;3.60;;
49556;SDS011;35462;45.048;7.666;2023-06-22T21:10:25;8.45;;;3.72;;
49556;SDS011;35462;45.048;7.666;2023-06-22T21:25:45;9.00;;;4.38;;
49556;SDS011;35462;45.048;7.666;2023-06-22T21:41:08;3.70;;;2.65;;
49556;SDS011;35462;45.048;7.666;2023-06-22T21:56:27;6.38;;;3.15;;
49556;SDS011;35462;45.048;7.666;2023-06-22T22:11:47;7.15;;;3.17;;
49556;SDS011;35462;45.048;7.666;2023-06-22T22:27:06;4.72;;;3.10;;
49556;SDS011;35462;45.048;7.666;2023-06-22T22:42:26;7.25;;;3.58;;
49556;SDS011;35462;45.048;7.666;2023-06-22T22:57:45;6.45;;;3.17;;
49556;SDS011;35462;45.048;7.666;2023-06-22T23:13:05;4.40;;;2.60;;
49556;SDS011;35462;45.048;7.666;2023-06-22T23:28:24;5.40;;;3.78;;
49556;SDS011;35462;45.048;7.666;2023-06-22T23:43:44;5.70;;;2.35;;
49556;SDS011;35462;45.048;7.666;2023-06-22T23:59:03;4.50;;;2.05;;
